Main page
METAR-TAF:

METAR-TAF

Airports :

N'Djamena International Airport

N'Djamena, Chad

latitude: 12-08N, longitude: 015-02E, elevation: 295 m

Current weather observation

The report was made 45 minutes ago, at 06:00 UTC
Wind 5 kt from the Southwest
Temperature 25°C
Humidity 89%
Pressure 1011 hPa
Visibility 10 km or more
Scattered clouds at a height of 3000 ft

METAR: FTTJ 180600Z 23005KT 9999 SCT030 25/23 Q1011 NOSIG

Time: 07:45 (06:45 UTC)

Forecast

The report was made 1 hour and 35 minutes ago, at 05:10 UTC
Forecast valid from 18 at 06 UTC to 19 at 12 UTC
Wind 6 kt from the Southwest
Visibility 10 km or more
Few clouds at a height of 3000 ft
Probability 40% :
Temporary
from 18 at 08 UTC to 18 at 18 UTC
thunderstorm, rain

TAF: FTTJ 180510Z 1806/1912 22006KT 9999 FEW030 PROB40 TEMPO 1808/1818 TSRA

Weather observations and forecasts of more than 4000 airports (METAR and TAF reports).

The available stations are represented by yellow and red dots on the map.

Hover mouse over dot to see the name of the station.

Then click to see weather observations and forecasts.

To change the map : click on the green buttons with a black cross to zoom in, on the green button with a dash to zoom out, or on the green arrows for adjacent maps.


METAR-TAF: